sensor_id;sensor_type;location;lat;lon;timestamp;P1;durP1;ratioP1;P2;durP2;ratioP2
30519;SDS011;17300;50.374;8.006;2022-07-05T00:02:23;0.60;;;0.60;;
30519;SDS011;17300;50.374;8.006;2022-07-05T00:04:49;1.03;;;0.80;;
30519;SDS011;17300;50.374;8.006;2022-07-05T00:07:16;1.73;;;0.73;;
30519;SDS011;17300;50.374;8.006;2022-07-05T00:09:47;0.73;;;0.73;;
30519;SDS011;17300;50.374;8.006;2022-07-05T00:12:17;1.43;;;0.80;;
30519;SDS011;17300;50.374;8.006;2022-07-05T00:14:45;1.00;;;0.90;;
30519;SDS011;17300;50.374;8.006;2022-07-05T00:17:14;0.90;;;0.80;;
30519;SDS011;17300;50.374;8.006;2022-07-05T00:19:41;2.13;;;0.80;;
30519;SDS011;17300;50.374;8.006;2022-07-05T00:22:09;0.73;;;0.73;;
30519;SDS011;17300;50.374;8.006;2022-07-05T00:24:36;0.83;;;0.80;;
30519;SDS011;17300;50.374;8.006;2022-07-05T00:27:03;1.33;;;1.00;;
30519;SDS011;17300;50.374;8.006;2022-07-05T00:29:31;1.10;;;0.80;;
30519;SDS011;17300;50.374;8.006;2022-07-05T00:31:58;0.93;;;0.70;;
30519;SDS011;17300;50.374;8.006;2022-07-05T00:34:25;0.80;;;0.80;;
30519;SDS011;17300;50.374;8.006;2022-07-05T00:36:52;0.90;;;0.90;;
30519;SDS011;17300;50.374;8.006;2022-07-05T00:39:19;1.47;;;0.97;;
30519;SDS011;17300;50.374;8.006;2022-07-05T00:41:46;1.00;;;0.80;;
30519;SDS011;17300;50.374;8.006;2022-07-05T00:44:13;1.10;;;0.80;;
30519;SDS011;17300;50.374;8.006;2022-07-05T00:46:42;0.67;;;0.67;;
30519;SDS011;17300;50.374;8.006;2022-07-05T00:49:09;1.47;;;0.80;;
30519;SDS011;17300;50.374;8.006;2022-07-05T00:51:37;1.00;;;0.80;;
30519;SDS011;17300;50.374;8.006;2022-07-05T00:54:05;0.80;;;0.77;;
30519;SDS011;17300;50.374;8.006;2022-07-05T00:56:32;1.17;;;0.90;;
30519;SDS011;17300;50.374;8.006;2022-07-05T00:58:59;0.73;;;0.70;;
30519;SDS011;17300;50.374;8.006;2022-07-05T01:01:27;1.47;;;1.00;;
30519;SDS011;17300;50.374;8.006;2022-07-05T01:03:55;2.30;;;1.10;;
30519;SDS011;17300;50.374;8.006;2022-07-05T01:06:22;1.07;;;0.60;;
30519;SDS011;17300;50.374;8.006;2022-07-05T01:08:49;1.23;;;0.90;;
30519;SDS011;17300;50.374;8.006;2022-07-05T01:11:16;0.80;;;0.80;;
30519;SDS011;17300;50.374;8.006;2022-07-05T01:13:43;1.87;;;0.80;;
30519;SDS011;17300;50.374;8.006;2022-07-05T01:16:10;1.43;;;0.83;;
30519;SDS011;17300;50.374;8.006;2022-07-05T01:18:38;1.60;;;0.80;;
30519;SDS011;17300;50.374;8.006;2022-07-05T01:21:07;0.83;;;0.80;;
30519;SDS011;17300;50.374;8.006;2022-07-05T01:23:35;0.77;;;0.77;;
30519;SDS011;17300;50.374;8.006;2022-07-05T01:26:02;0.80;;;0.80;;
30519;SDS011;17300;50.374;8.006;2022-07-05T01:28:29;1.00;;;0.90;;
30519;SDS011;17300;50.374;8.006;2022-07-05T01:30:55;0.80;;;0.80;;
30519;SDS011;17300;50.374;8.006;2022-07-05T01:33:26;0.97;;;0.97;;
30519;SDS011;17300;50.374;8.006;2022-07-05T01:35:54;0.80;;;0.80;;
30519;SDS011;17300;50.374;8.006;2022-07-05T01:38:21;0.77;;;0.77;;
30519;SDS011;17300;50.374;8.006;2022-07-05T01:40:49;1.00;;;0.80;;
30519;SDS011;17300;50.374;8.006;2022-07-05T01:43:16;1.00;;;0.90;;
30519;SDS011;17300;50.374;8.006;2022-07-05T01:45:44;0.77;;;0.73;;
30519;SDS011;17300;50.374;8.006;2022-07-05T01:48:14;1.87;;;0.93;;
30519;SDS011;17300;50.374;8.006;2022-07-05T01:50:44;1.00;;;0.80;;
30519;SDS011;17300;50.374;8.006;2022-07-05T01:53:14;1.37;;;0.70;;
30519;SDS011;17300;50.374;8.006;2022-07-05T01:55:43;2.73;;;0.90;;
30519;SDS011;17300;50.374;8.006;2022-07-05T01:58:12;0.93;;;0.70;;
30519;SDS011;17300;50.374;8.006;2022-07-05T02:00:42;0.87;;;0.87;;
30519;SDS011;17300;50.374;8.006;2022-07-05T02:03:10;0.63;;;0.63;;
30519;SDS011;17300;50.374;8.006;2022-07-05T02:05:38;0.77;;;0.70;;
30519;SDS011;17300;50.374;8.006;2022-07-05T02:08:04;1.17;;;0.90;;
30519;SDS011;17300;50.374;8.006;2022-07-05T02:10:31;0.73;;;0.73;;
30519;SDS011;17300;50.374;8.006;2022-07-05T02:12:58;1.53;;;1.00;;
30519;SDS011;17300;50.374;8.006;2022-07-05T02:15:26;1.27;;;0.73;;
30519;SDS011;17300;50.374;8.006;2022-07-05T02:17:55;1.47;;;0.70;;
30519;SDS011;17300;50.374;8.006;2022-07-05T02:20:22;0.90;;;0.90;;
30519;SDS011;17300;50.374;8.006;2022-07-05T02:22:48;0.90;;;0.70;;
30519;SDS011;17300;50.374;8.006;2022-07-05T02:25:15;1.90;;;0.73;;
30519;SDS011;17300;50.374;8.006;2022-07-05T02:27:42;0.93;;;0.70;;
30519;SDS011;17300;50.374;8.006;2022-07-05T02:30:09;0.93;;;0.73;;
30519;SDS011;17300;50.374;8.006;2022-07-05T02:32:38;1.27;;;0.90;;
30519;SDS011;17300;50.374;8.006;2022-07-05T02:35:05;1.30;;;0.90;;
30519;SDS011;17300;50.374;8.006;2022-07-05T02:37:33;1.47;;;0.80;;
30519;SDS011;17300;50.374;8.006;2022-07-05T02:40:00;0.93;;;0.80;;
30519;SDS011;17300;50.374;8.006;2022-07-05T02:42:26;1.43;;;0.90;;
30519;SDS011;17300;50.374;8.006;2022-07-05T02:44:53;1.37;;;1.07;;
30519;SDS011;17300;50.374;8.006;2022-07-05T02:47:20;2.17;;;1.33;;
30519;SDS011;17300;50.374;8.006;2022-07-05T02:49:48;2.83;;;1.60;;
30519;SDS011;17300;50.374;8.006;2022-07-05T02:52:15;1.50;;;1.10;;
30519;SDS011;17300;50.374;8.006;2022-07-05T02:54:41;1.60;;;1.40;;
30519;SDS011;17300;50.374;8.006;2022-07-05T02:57:08;2.47;;;1.30;;
30519;SDS011;17300;50.374;8.006;2022-07-05T02:59:35;1.00;;;1.00;;
30519;SDS011;17300;50.374;8.006;2022-07-05T03:02:01;1.30;;;1.00;;
30519;SDS011;17300;50.374;8.006;2022-07-05T03:04:28;0.90;;;0.90;;
30519;SDS011;17300;50.374;8.006;2022-07-05T03:06:56;1.80;;;1.10;;
30519;SDS011;17300;50.374;8.006;2022-07-05T03:09:23;1.20;;;1.10;;
30519;SDS011;17300;50.374;8.006;2022-07-05T03:11:50;1.23;;;1.13;;
30519;SDS011;17300;50.374;8.006;2022-07-05T03:14:16;1.43;;;1.20;;
30519;SDS011;17300;50.374;8.006;2022-07-05T03:16:43;2.23;;;1.50;;
30519;SDS011;17300;50.374;8.006;2022-07-05T03:19:10;1.37;;;1.20;;
30519;SDS011;17300;50.374;8.006;2022-07-05T03:21:37;1.70;;;1.50;;
30519;SDS011;17300;50.374;8.006;2022-07-05T03:24:05;1.30;;;1.20;;
30519;SDS011;17300;50.374;8.006;2022-07-05T03:26:32;1.43;;;1.30;;
30519;SDS011;17300;50.374;8.006;2022-07-05T03:28:59;1.50;;;1.40;;
30519;SDS011;17300;50.374;8.006;2022-07-05T03:31:25;2.07;;;1.40;;
30519;SDS011;17300;50.374;8.006;2022-07-05T03:33:52;2.60;;;1.37;;
30519;SDS011;17300;50.374;8.006;2022-07-05T03:36:19;1.47;;;1.37;;
30519;SDS011;17300;50.374;8.006;2022-07-05T03:38:45;1.40;;;1.30;;
30519;SDS011;17300;50.374;8.006;2022-07-05T03:41:13;1.30;;;1.07;;
30519;SDS011;17300;50.374;8.006;2022-07-05T03:43:40;1.23;;;1.13;;
30519;SDS011;17300;50.374;8.006;2022-07-05T03:46:07;1.40;;;1.30;;
30519;SDS011;17300;50.374;8.006;2022-07-05T03:48:34;4.20;;;1.47;;
30519;SDS011;17300;50.374;8.006;2022-07-05T03:51:00;2.00;;;1.80;;
30519;SDS011;17300;50.374;8.006;2022-07-05T03:53:27;1.77;;;1.40;;
30519;SDS011;17300;50.374;8.006;2022-07-05T03:55:54;1.90;;;1.43;;
30519;SDS011;17300;50.374;8.006;2022-07-05T03:58:22;2.57;;;1.60;;
30519;SDS011;17300;50.374;8.006;2022-07-05T04:00:49;1.50;;;1.40;;
30519;SDS011;17300;50.374;8.006;2022-07-05T04:03:15;1.87;;;1.57;;
30519;SDS011;17300;50.374;8.006;2022-07-05T04:05:42;1.50;;;1.40;;
30519;SDS011;17300;50.374;8.006;2022-07-05T04:08:09;1.40;;;1.30;;
30519;SDS011;17300;50.374;8.006;2022-07-05T04:10:35;1.53;;;1.23;;
30519;SDS011;17300;50.374;8.006;2022-07-05T04:13:02;2.00;;;1.27;;
30519;SDS011;17300;50.374;8.006;2022-07-05T04:15:30;1.33;;;1.23;;
30519;SDS011;17300;50.374;8.006;2022-07-05T04:17:57;1.47;;;1.37;;
30519;SDS011;17300;50.374;8.006;2022-07-05T04:20:23;1.23;;;1.10;;
30519;SDS011;17300;50.374;8.006;2022-07-05T04:22:50;0.90;;;0.90;;
30519;SDS011;17300;50.374;8.006;2022-07-05T04:25:18;1.10;;;1.00;;
30519;SDS011;17300;50.374;8.006;2022-07-05T04:27:45;1.13;;;1.00;;
30519;SDS011;17300;50.374;8.006;2022-07-05T04:30:14;1.03;;;0.93;;
30519;SDS011;17300;50.374;8.006;2022-07-05T04:32:42;1.00;;;0.90;;
30519;SDS011;17300;50.374;8.006;2022-07-05T04:35:10;0.80;;;0.80;;
30519;SDS011;17300;50.374;8.006;2022-07-05T04:37:37;1.17;;;1.07;;
30519;SDS011;17300;50.374;8.006;2022-07-05T04:40:05;2.60;;;0.90;;
30519;SDS011;17300;50.374;8.006;2022-07-05T04:42:33;1.43;;;0.80;;
30519;SDS011;17300;50.374;8.006;2022-07-05T04:45:00;0.83;;;0.83;;
30519;SDS011;17300;50.374;8.006;2022-07-05T04:47:27;1.03;;;0.93;;
30519;SDS011;17300;50.374;8.006;2022-07-05T04:49:55;0.80;;;0.80;;
30519;SDS011;17300;50.374;8.006;2022-07-05T04:52:23;0.80;;;0.80;;
30519;SDS011;17300;50.374;8.006;2022-07-05T04:54:50;0.80;;;0.80;;
30519;SDS011;17300;50.374;8.006;2022-07-05T04:57:17;1.10;;;1.00;;
30519;SDS011;17300;50.374;8.006;2022-07-05T04:59:44;1.77;;;1.00;;
30519;SDS011;17300;50.374;8.006;2022-07-05T05:02:11;0.90;;;0.90;;
30519;SDS011;17300;50.374;8.006;2022-07-05T05:04:38;1.50;;;0.90;;
30519;SDS011;17300;50.374;8.006;2022-07-05T05:07:06;0.87;;;0.83;;
30519;SDS011;17300;50.374;8.006;2022-07-05T05:09:33;1.00;;;0.93;;
30519;SDS011;17300;50.374;8.006;2022-07-05T05:11:59;1.13;;;0.87;;
30519;SDS011;17300;50.374;8.006;2022-07-05T05:14:26;1.10;;;1.00;;
30519;SDS011;17300;50.374;8.006;2022-07-05T05:16:53;1.37;;;1.27;;
30519;SDS011;17300;50.374;8.006;2022-07-05T05:19:19;1.00;;;1.00;;
30519;SDS011;17300;50.374;8.006;2022-07-05T05:21:46;1.37;;;1.10;;
30519;SDS011;17300;50.374;8.006;2022-07-05T05:24:14;0.83;;;0.83;;
30519;SDS011;17300;50.374;8.006;2022-07-05T05:26:41;1.67;;;1.00;;
30519;SDS011;17300;50.374;8.006;2022-07-05T05:29:07;1.87;;;1.10;;
30519;SDS011;17300;50.374;8.006;2022-07-05T05:31:34;1.20;;;1.00;;
30519;SDS011;17300;50.374;8.006;2022-07-05T05:34:01;0.90;;;0.90;;
30519;SDS011;17300;50.374;8.006;2022-07-05T05:36:28;1.40;;;1.00;;
30519;SDS011;17300;50.374;8.006;2022-07-05T05:38:55;1.17;;;1.00;;
30519;SDS011;17300;50.374;8.006;2022-07-05T05:41:23;5.10;;;1.47;;
30519;SDS011;17300;50.374;8.006;2022-07-05T05:43:49;1.17;;;1.00;;
30519;SDS011;17300;50.374;8.006;2022-07-05T05:46:16;1.93;;;1.63;;
30519;SDS011;17300;50.374;8.006;2022-07-05T05:48:43;1.27;;;1.10;;
30519;SDS011;17300;50.374;8.006;2022-07-05T05:51:10;2.77;;;1.53;;
30519;SDS011;17300;50.374;8.006;2022-07-05T05:53:36;2.83;;;1.33;;
30519;SDS011;17300;50.374;8.006;2022-07-05T05:56:03;1.50;;;1.20;;
30519;SDS011;17300;50.374;8.006;2022-07-05T05:58:31;2.00;;;1.23;;
30519;SDS011;17300;50.374;8.006;2022-07-05T06:00:58;1.90;;;1.03;;
30519;SDS011;17300;50.374;8.006;2022-07-05T06:03:25;1.00;;;0.90;;
30519;SDS011;17300;50.374;8.006;2022-07-05T06:05:52;1.37;;;1.10;;
30519;SDS011;17300;50.374;8.006;2022-07-05T06:08:19;1.40;;;1.10;;
30519;SDS011;17300;50.374;8.006;2022-07-05T06:10:46;0.95;;;0.93;;
30519;SDS011;17300;50.374;8.006;2022-07-05T06:13:13;1.95;;;0.93;;
30519;SDS011;17300;50.374;8.006;2022-07-05T06:15:42;1.02;;;0.90;;
30519;SDS011;17300;50.374;8.006;2022-07-05T06:18:09;1.67;;;1.05;;
30519;SDS011;17300;50.374;8.006;2022-07-05T06:20:37;1.00;;;0.90;;
30519;SDS011;17300;50.374;8.006;2022-07-05T06:23:05;0.85;;;0.82;;
30519;SDS011;17300;50.374;8.006;2022-07-05T06:25:33;0.80;;;0.80;;
30519;SDS011;17300;50.374;8.006;2022-07-05T06:28:02;1.45;;;0.90;;
30519;SDS011;17300;50.374;8.006;2022-07-05T06:30:31;0.90;;;0.90;;
30519;SDS011;17300;50.374;8.006;2022-07-05T06:33:00;1.17;;;0.95;;
30519;SDS011;17300;50.374;8.006;2022-07-05T06:35:27;3.03;;;1.38;;
30519;SDS011;17300;50.374;8.006;2022-07-05T06:37:54;0.95;;;0.85;;
30519;SDS011;17300;50.374;8.006;2022-07-05T06:40:24;1.10;;;1.00;;
30519;SDS011;17300;50.374;8.006;2022-07-05T06:42:52;1.58;;;1.00;;
30519;SDS011;17300;50.374;8.006;2022-07-05T06:45:20;0.95;;;0.93;;
30519;SDS011;17300;50.374;8.006;2022-07-05T06:47:53;1.17;;;0.95;;
30519;SDS011;17300;50.374;8.006;2022-07-05T06:50:22;1.05;;;0.90;;
30519;SDS011;17300;50.374;8.006;2022-07-05T06:52:49;1.58;;;1.20;;
30519;SDS011;17300;50.374;8.006;2022-07-05T06:55:15;0.90;;;0.90;;
30519;SDS011;17300;50.374;8.006;2022-07-05T06:57:42;2.05;;;0.82;;
30519;SDS011;17300;50.374;8.006;2022-07-05T07:00:11;1.55;;;1.08;;
30519;SDS011;17300;50.374;8.006;2022-07-05T07:02:38;1.02;;;0.80;;
30519;SDS011;17300;50.374;8.006;2022-07-05T07:05:05;1.02;;;0.80;;
30519;SDS011;17300;50.374;8.006;2022-07-05T07:07:35;1.23;;;1.10;;
30519;SDS011;17300;50.374;8.006;2022-07-05T07:10:19;1.55;;;1.00;;
30519;SDS011;17300;50.374;8.006;2022-07-05T07:12:45;1.75;;;1.00;;
30519;SDS011;17300;50.374;8.006;2022-07-05T07:15:12;1.98;;;1.10;;
30519;SDS011;17300;50.374;8.006;2022-07-05T07:17:39;1.10;;;1.00;;
30519;SDS011;17300;50.374;8.006;2022-07-05T07:20:07;1.27;;;0.98;;
30519;SDS011;17300;50.374;8.006;2022-07-05T07:22:36;1.40;;;0.88;;
30519;SDS011;17300;50.374;8.006;2022-07-05T07:25:03;1.63;;;0.98;;
30519;SDS011;17300;50.374;8.006;2022-07-05T07:27:39;1.20;;;1.10;;
30519;SDS011;17300;50.374;8.006;2022-07-05T07:30:07;1.13;;;0.95;;
30519;SDS011;17300;50.374;8.006;2022-07-05T07:32:35;1.20;;;1.00;;
30519;SDS011;17300;50.374;8.006;2022-07-05T07:35:02;1.33;;;1.00;;
30519;SDS011;17300;50.374;8.006;2022-07-05T07:37:29;1.23;;;1.00;;
30519;SDS011;17300;50.374;8.006;2022-07-05T07:39:57;1.63;;;1.02;;
30519;SDS011;17300;50.374;8.006;2022-07-05T07:42:24;1.20;;;0.85;;
30519;SDS011;17300;50.374;8.006;2022-07-05T07:44:51;2.13;;;1.00;;
30519;SDS011;17300;50.374;8.006;2022-07-05T07:47:18;1.23;;;0.90;;
30519;SDS011;17300;50.374;8.006;2022-07-05T07:49:44;1.45;;;1.00;;
30519;SDS011;17300;50.374;8.006;2022-07-05T07:52:12;1.45;;;1.17;;
30519;SDS011;17300;50.374;8.006;2022-07-05T07:54:39;1.20;;;1.10;;
30519;SDS011;17300;50.374;8.006;2022-07-05T07:57:07;1.25;;;0.95;;
30519;SDS011;17300;50.374;8.006;2022-07-05T07:59:34;1.80;;;0.90;;
30519;SDS011;17300;50.374;8.006;2022-07-05T08:02:01;0.80;;;0.80;;
30519;SDS011;17300;50.374;8.006;2022-07-05T08:04:27;1.55;;;1.10;;
30519;SDS011;17300;50.374;8.006;2022-07-05T08:06:54;1.13;;;0.98;;
30519;SDS011;17300;50.374;8.006;2022-07-05T08:09:21;1.98;;;1.13;;
30519;SDS011;17300;50.374;8.006;2022-07-05T08:11:47;1.17;;;1.08;;
30519;SDS011;17300;50.374;8.006;2022-07-05T08:14:16;2.83;;;1.10;;
30519;SDS011;17300;50.374;8.006;2022-07-05T08:16:45;1.23;;;1.00;;
30519;SDS011;17300;50.374;8.006;2022-07-05T08:19:13;1.50;;;1.00;;
30519;SDS011;17300;50.374;8.006;2022-07-05T08:21:57;1.60;;;1.08;;
30519;SDS011;17300;50.374;8.006;2022-07-05T08:24:24;1.40;;;1.20;;
30519;SDS011;17300;50.374;8.006;2022-07-05T08:26:51;1.15;;;1.02;;
30519;SDS011;17300;50.374;8.006;2022-07-05T08:29:19;1.05;;;0.85;;
30519;SDS011;17300;50.374;8.006;2022-07-05T08:31:46;0.93;;;0.85;;
30519;SDS011;17300;50.374;8.006;2022-07-05T08:34:15;1.92;;;0.95;;
30519;SDS011;17300;50.374;8.006;2022-07-05T08:36:43;1.45;;;1.10;;
30519;SDS011;17300;50.374;8.006;2022-07-05T08:39:10;1.48;;;1.27;;
30519;SDS011;17300;50.374;8.006;2022-07-05T08:41:38;2.70;;;1.10;;
30519;SDS011;17300;50.374;8.006;2022-07-05T08:44:06;1.67;;;1.08;;
30519;SDS011;17300;50.374;8.006;2022-07-05T08:46:37;1.40;;;1.00;;
30519;SDS011;17300;50.374;8.006;2022-07-05T08:49:05;1.20;;;1.02;;
30519;SDS011;17300;50.374;8.006;2022-07-05T08:51:32;1.30;;;1.10;;
30519;SDS011;17300;50.374;8.006;2022-07-05T08:54:02;1.38;;;1.05;;
30519;SDS011;17300;50.374;8.006;2022-07-05T08:56:30;2.22;;;1.10;;
30519;SDS011;17300;50.374;8.006;2022-07-05T08:58:58;1.13;;;1.00;;
30519;SDS011;17300;50.374;8.006;2022-07-05T09:01:24;1.15;;;0.93;;
30519;SDS011;17300;50.374;8.006;2022-07-05T09:03:58;2.05;;;0.95;;
30519;SDS011;17300;50.374;8.006;2022-07-05T09:06:28;1.00;;;0.90;;
30519;SDS011;17300;50.374;8.006;2022-07-05T09:08:57;1.00;;;0.90;;
30519;SDS011;17300;50.374;8.006;2022-07-05T09:11:35;1.13;;;1.02;;
30519;SDS011;17300;50.374;8.006;2022-07-05T09:14:04;1.27;;;1.00;;
30519;SDS011;17300;50.374;8.006;2022-07-05T09:16:32;0.95;;;0.95;;
30519;SDS011;17300;50.374;8.006;2022-07-05T09:19:05;1.30;;;1.02;;
30519;SDS011;17300;50.374;8.006;2022-07-05T09:21:33;2.17;;;0.95;;
30519;SDS011;17300;50.374;8.006;2022-07-05T09:24:01;1.60;;;1.00;;
30519;SDS011;17300;50.374;8.006;2022-07-05T09:26:31;1.20;;;0.80;;
30519;SDS011;17300;50.374;8.006;2022-07-05T09:28:58;1.23;;;0.88;;
30519;SDS011;17300;50.374;8.006;2022-07-05T09:31:26;1.73;;;0.90;;
30519;SDS011;17300;50.374;8.006;2022-07-05T09:33:54;1.38;;;0.90;;
30519;SDS011;17300;50.374;8.006;2022-07-05T09:39:15;1.17;;;0.80;;
30519;SDS011;17300;50.374;8.006;2022-07-05T09:41:42;3.17;;;1.00;;
30519;SDS011;17300;50.374;8.006;2022-07-05T09:44:08;0.80;;;0.80;;
30519;SDS011;17300;50.374;8.006;2022-07-05T09:46:35;1.63;;;1.48;;
30519;SDS011;17300;50.374;8.006;2022-07-05T09:49:02;1.30;;;1.20;;
30519;SDS011;17300;50.374;8.006;2022-07-05T09:51:29;1.10;;;1.00;;
30519;SDS011;17300;50.374;8.006;2022-07-05T09:54:15;0.88;;;0.80;;
30519;SDS011;17300;50.374;8.006;2022-07-05T09:56:45;3.22;;;0.80;;
30519;SDS011;17300;50.374;8.006;2022-07-05T09:59:13;1.02;;;0.90;;
30519;SDS011;17300;50.374;8.006;2022-07-05T10:01:43;0.65;;;0.65;;
30519;SDS011;17300;50.374;8.006;2022-07-05T10:04:10;0.88;;;0.80;;
30519;SDS011;17300;50.374;8.006;2022-07-05T10:06:37;1.95;;;0.88;;
30519;SDS011;17300;50.374;8.006;2022-07-05T10:09:04;1.13;;;1.08;;
30519;SDS011;17300;50.374;8.006;2022-07-05T10:11:32;0.80;;;0.80;;
30519;SDS011;17300;50.374;8.006;2022-07-05T10:14:00;1.80;;;1.00;;
30519;SDS011;17300;50.374;8.006;2022-07-05T10:16:33;0.70;;;0.70;;
30519;SDS011;17300;50.374;8.006;2022-07-05T10:19:00;0.68;;;0.68;;
30519;SDS011;17300;50.374;8.006;2022-07-05T10:21:27;2.35;;;0.95;;
30519;SDS011;17300;50.374;8.006;2022-07-05T10:23:54;1.60;;;1.08;;
30519;SDS011;17300;50.374;8.006;2022-07-05T10:26:23;1.20;;;0.90;;
30519;SDS011;17300;50.374;8.006;2022-07-05T10:28:53;1.15;;;0.90;;
30519;SDS011;17300;50.374;8.006;2022-07-05T10:31:21;1.35;;;0.95;;
30519;SDS011;17300;50.374;8.006;2022-07-05T10:33:49;0.88;;;0.80;;
30519;SDS011;17300;50.374;8.006;2022-07-05T10:36:17;0.82;;;0.80;;
30519;SDS011;17300;50.374;8.006;2022-07-05T10:38:45;0.73;;;0.70;;
30519;SDS011;17300;50.374;8.006;2022-07-05T10:41:14;0.80;;;0.80;;
30519;SDS011;17300;50.374;8.006;2022-07-05T10:43:44;2.53;;;1.00;;
30519;SDS011;17300;50.374;8.006;2022-07-05T10:46:12;1.10;;;1.00;;
30519;SDS011;17300;50.374;8.006;2022-07-05T10:49:08;1.33;;;1.08;;
30519;SDS011;17300;50.374;8.006;2022-07-05T10:51:37;0.98;;;0.88;;
30519;SDS011;17300;50.374;8.006;2022-07-05T10:54:04;1.00;;;0.85;;
30519;SDS011;17300;50.374;8.006;2022-07-05T10:56:31;1.10;;;1.00;;
30519;SDS011;17300;50.374;8.006;2022-07-05T10:59:04;2.10;;;1.13;;
30519;SDS011;17300;50.374;8.006;2022-07-05T11:01:35;0.90;;;0.90;;
30519;SDS011;17300;50.374;8.006;2022-07-05T11:04:18;1.10;;;1.00;;
30519;SDS011;17300;50.374;8.006;2022-07-05T11:06:51;1.70;;;1.02;;
30519;SDS011;17300;50.374;8.006;2022-07-05T11:09:19;1.60;;;1.10;;
30519;SDS011;17300;50.374;8.006;2022-07-05T11:11:47;1.73;;;1.00;;
30519;SDS011;17300;50.374;8.006;2022-07-05T11:14:45;1.45;;;1.10;;
30519;SDS011;17300;50.374;8.006;2022-07-05T11:17:14;1.33;;;0.93;;
30519;SDS011;17300;50.374;8.006;2022-07-05T11:20:09;2.15;;;1.00;;
30519;SDS011;17300;50.374;8.006;2022-07-05T11:22:39;0.98;;;0.88;;
30519;SDS011;17300;50.374;8.006;2022-07-05T11:25:08;0.80;;;0.80;;
30519;SDS011;17300;50.374;8.006;2022-07-05T11:27:36;0.80;;;0.80;;
30519;SDS011;17300;50.374;8.006;2022-07-05T11:30:21;1.40;;;1.00;;
30519;SDS011;17300;50.374;8.006;2022-07-05T11:32:50;1.25;;;1.05;;
30519;SDS011;17300;50.374;8.006;2022-07-05T11:35:17;1.45;;;0.88;;
30519;SDS011;17300;50.374;8.006;2022-07-05T11:37:57;1.50;;;1.00;;
30519;SDS011;17300;50.374;8.006;2022-07-05T11:40:30;1.27;;;0.93;;
30519;SDS011;17300;50.374;8.006;2022-07-05T11:42:58;1.15;;;1.08;;
30519;SDS011;17300;50.374;8.006;2022-07-05T11:45:27;1.15;;;1.05;;
30519;SDS011;17300;50.374;8.006;2022-07-05T11:47:55;1.38;;;0.95;;
30519;SDS011;17300;50.374;8.006;2022-07-05T11:50:27;1.08;;;0.98;;
30519;SDS011;17300;50.374;8.006;2022-07-05T11:52:56;1.58;;;1.20;;
30519;SDS011;17300;50.374;8.006;2022-07-05T11:55:24;1.05;;;1.00;;
30519;SDS011;17300;50.374;8.006;2022-07-05T11:57:53;2.03;;;1.83;;
30519;SDS011;17300;50.374;8.006;2022-07-05T12:00:25;1.60;;;1.50;;
30519;SDS011;17300;50.374;8.006;2022-07-05T12:02:54;1.77;;;1.10;;
30519;SDS011;17300;50.374;8.006;2022-07-05T12:05:21;1.45;;;1.00;;
30519;SDS011;17300;50.374;8.006;2022-07-05T12:07:48;1.40;;;1.30;;
30519;SDS011;17300;50.374;8.006;2022-07-05T12:10:16;1.60;;;1.50;;
30519;SDS011;17300;50.374;8.006;2022-07-05T12:13:03;1.77;;;1.30;;
30519;SDS011;17300;50.374;8.006;2022-07-05T12:15:30;1.73;;;1.20;;
30519;SDS011;17300;50.374;8.006;2022-07-05T12:17:59;1.30;;;1.08;;
30519;SDS011;17300;50.374;8.006;2022-07-05T12:20:28;1.33;;;1.00;;
30519;SDS011;17300;50.374;8.006;2022-07-05T12:22:56;1.08;;;0.98;;
30519;SDS011;17300;50.374;8.006;2022-07-05T12:25:25;1.13;;;1.02;;
30519;SDS011;17300;50.374;8.006;2022-07-05T12:27:53;1.15;;;1.05;;
30519;SDS011;17300;50.374;8.006;2022-07-05T12:30:22;1.40;;;1.00;;
30519;SDS011;17300;50.374;8.006;2022-07-05T12:32:53;1.17;;;1.10;;
30519;SDS011;17300;50.374;8.006;2022-07-05T12:35:26;1.42;;;1.10;;
30519;SDS011;17300;50.374;8.006;2022-07-05T12:37:54;1.55;;;1.30;;
30519;SDS011;17300;50.374;8.006;2022-07-05T12:40:21;1.40;;;1.27;;
30519;SDS011;17300;50.374;8.006;2022-07-05T12:42:59;1.52;;;1.30;;
30519;SDS011;17300;50.374;8.006;2022-07-05T12:45:27;2.10;;;0.98;;
30519;SDS011;17300;50.374;8.006;2022-07-05T12:47:55;1.63;;;1.10;;
30519;SDS011;17300;50.374;8.006;2022-07-05T12:50:25;1.20;;;1.10;;
30519;SDS011;17300;50.374;8.006;2022-07-05T12:52:57;2.55;;;1.00;;
30519;SDS011;17300;50.374;8.006;2022-07-05T12:55:32;1.08;;;0.98;;
30519;SDS011;17300;50.374;8.006;2022-07-05T12:58:18;1.05;;;1.05;;
30519;SDS011;17300;50.374;8.006;2022-07-05T13:00:45;1.30;;;1.10;;
30519;SDS011;17300;50.374;8.006;2022-07-05T13:03:12;1.20;;;1.15;;
30519;SDS011;17300;50.374;8.006;2022-07-05T13:05:42;1.17;;;1.17;;
30519;SDS011;17300;50.374;8.006;2022-07-05T13:08:08;1.38;;;1.15;;
30519;SDS011;17300;50.374;8.006;2022-07-05T13:10:35;1.30;;;1.20;;
30519;SDS011;17300;50.374;8.006;2022-07-05T13:13:12;1.20;;;1.10;;
30519;SDS011;17300;50.374;8.006;2022-07-05T13:15:41;2.75;;;1.20;;
30519;SDS011;17300;50.374;8.006;2022-07-05T13:18:08;1.20;;;1.10;;
30519;SDS011;17300;50.374;8.006;2022-07-05T13:20:35;4.05;;;1.20;;
30519;SDS011;17300;50.374;8.006;2022-07-05T13:23:03;1.48;;;1.10;;
30519;SDS011;17300;50.374;8.006;2022-07-05T13:25:29;1.10;;;1.00;;
30519;SDS011;17300;50.374;8.006;2022-07-05T13:27:56;1.55;;;1.20;;
30519;SDS011;17300;50.374;8.006;2022-07-05T13:30:23;1.90;;;1.30;;
30519;SDS011;17300;50.374;8.006;2022-07-05T13:32:50;1.77;;;1.20;;
30519;SDS011;17300;50.374;8.006;2022-07-05T13:35:16;1.45;;;1.10;;
30519;SDS011;17300;50.374;8.006;2022-07-05T13:37:43;1.17;;;1.00;;
30519;SDS011;17300;50.374;8.006;2022-07-05T13:40:12;1.25;;;1.10;;
30519;SDS011;17300;50.374;8.006;2022-07-05T13:42:39;1.30;;;1.10;;
30519;SDS011;17300;50.374;8.006;2022-07-05T13:45:06;1.20;;;1.10;;
30519;SDS011;17300;50.374;8.006;2022-07-05T13:47:34;1.20;;;1.10;;
30519;SDS011;17300;50.374;8.006;2022-07-05T13:50:00;1.38;;;1.25;;
30519;SDS011;17300;50.374;8.006;2022-07-05T13:52:41;1.95;;;1.02;;
30519;SDS011;17300;50.374;8.006;2022-07-05T13:55:08;2.75;;;1.00;;
30519;SDS011;17300;50.374;8.006;2022-07-05T13:57:36;0.90;;;0.90;;
30519;SDS011;17300;50.374;8.006;2022-07-05T14:00:04;3.10;;;1.23;;
30519;SDS011;17300;50.374;8.006;2022-07-05T14:02:32;1.98;;;1.17;;
30519;SDS011;17300;50.374;8.006;2022-07-05T14:04:59;3.17;;;1.10;;
30519;SDS011;17300;50.374;8.006;2022-07-05T14:07:25;1.35;;;1.20;;
30519;SDS011;17300;50.374;8.006;2022-07-05T14:09:52;1.08;;;1.08;;
30519;SDS011;17300;50.374;8.006;2022-07-05T14:12:19;1.27;;;1.17;;
30519;SDS011;17300;50.374;8.006;2022-07-05T14:14:47;1.13;;;1.02;;
30519;SDS011;17300;50.374;8.006;2022-07-05T14:17:14;0.93;;;0.93;;
30519;SDS011;17300;50.374;8.006;2022-07-05T14:19:40;1.13;;;1.02;;
30519;SDS011;17300;50.374;8.006;2022-07-05T14:22:07;1.27;;;1.17;;
30519;SDS011;17300;50.374;8.006;2022-07-05T14:24:34;1.35;;;1.20;;
30519;SDS011;17300;50.374;8.006;2022-07-05T14:27:00;1.00;;;1.00;;
30519;SDS011;17300;50.374;8.006;2022-07-05T14:29:27;1.65;;;1.20;;
30519;SDS011;17300;50.374;8.006;2022-07-05T14:31:55;1.20;;;1.10;;
30519;SDS011;17300;50.374;8.006;2022-07-05T14:34:22;1.30;;;1.20;;
30519;SDS011;17300;50.374;8.006;2022-07-05T14:36:49;0.90;;;0.90;;
30519;SDS011;17300;50.374;8.006;2022-07-05T14:39:15;1.05;;;1.05;;
30519;SDS011;17300;50.374;8.006;2022-07-05T14:41:42;1.77;;;1.02;;
30519;SDS011;17300;50.374;8.006;2022-07-05T14:44:09;1.42;;;0.95;;
30519;SDS011;17300;50.374;8.006;2022-07-05T14:46:36;1.00;;;1.00;;
30519;SDS011;17300;50.374;8.006;2022-07-05T14:49:04;1.42;;;0.90;;
30519;SDS011;17300;50.374;8.006;2022-07-05T14:51:31;1.40;;;0.90;;
30519;SDS011;17300;50.374;8.006;2022-07-05T14:53:57;1.27;;;0.90;;
30519;SDS011;17300;50.374;8.006;2022-07-05T14:56:24;2.45;;;0.98;;
30519;SDS011;17300;50.374;8.006;2022-07-05T14:58:51;1.25;;;0.98;;